Time;durP1;ratioP1;P1;durP2;ratioP2;P2;SDS_P1;SDS_P2;PMS_P1;PMS_P2;Temp;Humidity;BMP_temperature;BMP_pressure;BME280_temperature;BME280_humidity;BME280_pressure;Samples;Min_cycle;Max_cycle;Signal;HPM_P1;HPM_P2
2024/01/19 00:02:47;;;;;;;48.00;31.60;;;;;;;-5.91;100.00;100872.03;10500269;27;20555;-79
2024/01/19 00:07:48;;;;;;;51.37;36.90;;;;;;;-5.82;100.00;100869.59;10501093;27;20131;-78
2024/01/19 00:12:48;;;;;;;66.20;34.53;;;;;;;-5.76;100.00;100872.81;10484359;28;20127;-79
2024/01/19 00:17:49;;;;;;;51.63;33.93;;;;;;;-5.68;100.00;100874.59;10512599;27;20158;-79
2024/01/19 00:22:49;;;;;;;56.77;37.63;;;;;;;-5.56;100.00;100889.44;10516704;28;20123;-79
2024/01/19 00:27:50;;;;;;;59.97;37.97;;;;;;;-5.51;100.00;100895.97;10520722;27;20459;-79
2024/01/19 00:32:50;;;;;;;48.07;35.37;;;;;;;-5.44;100.00;100895.03;10508551;27;20036;-79
2024/01/19 00:37:51;;;;;;;60.50;38.00;;;;;;;-5.36;100.00;100895.13;10503228;27;20400;-80
2024/01/19 00:42:51;;;;;;;96.53;41.07;;;;;;;-5.28;100.00;100905.28;10509541;27;20171;-79
2024/01/19 00:47:52;;;;;;;70.90;42.63;;;;;;;-5.23;100.00;100916.91;10518082;28;20040;-79
2024/01/19 00:52:52;;;;;;;69.87;40.53;;;;;;;-5.20;100.00;100918.19;10520495;27;20119;-79
2024/01/19 00:57:53;;;;;;;82.13;45.60;;;;;;;-5.14;100.00;100933.25;10523582;27;20493;-79
2024/01/19 01:02:57;;;;;;;81.80;42.57;;;;;;;-5.10;100.00;100930.28;10480304;27;20123;-79
2024/01/19 01:07:57;;;;;;;72.97;41.58;;;;;;;-5.03;100.00;100920.03;10502255;27;20044;-78
2024/01/19 01:13:01;;;;;;;79.10;43.20;;;;;;;-4.91;100.00;100924.66;10515632;27;20053;-78
2024/01/19 01:18:01;;;;;;;79.30;47.70;;;;;;;-4.84;100.00;100926.25;10514979;27;20040;-79
2024/01/19 01:23:02;;;;;;;73.80;46.07;;;;;;;-4.77;100.00;100936.41;10521523;27;20112;-78
2024/01/19 01:28:02;;;;;;;70.63;50.70;;;;;;;-4.69;100.00;100955.09;10483054;27;20495;-79
2024/01/19 01:33:04;;;;;;;68.83;50.97;;;;;;;-4.63;100.00;100955.78;10510699;27;20096;-78
2024/01/19 01:38:04;;;;;;;111.13;52.35;;;;;;;-4.56;100.00;100963.38;10500885;27;20044;-79
2024/01/19 01:43:06;;;;;;;79.70;53.07;;;;;;;-4.49;100.00;100967.53;10509483;28;20033;-78
2024/01/19 01:48:06;;;;;;;104.03;56.05;;;;;;;-4.39;100.00;100961.75;10517822;27;20055;-78
2024/01/19 01:53:07;;;;;;;73.23;50.97;;;;;;;-4.34;100.00;100964.06;10516724;27;20127;-79
2024/01/19 01:58:08;;;;;;;105.50;56.20;;;;;;;-4.22;100.00;100963.59;10507523;27;20597;-79
2024/01/19 02:03:08;;;;;;;90.10;56.70;;;;;;;-4.16;100.00;100967.69;10515351;27;20043;-79
2024/01/19 02:08:09;;;;;;;94.83;57.37;;;;;;;-4.05;100.00;100968.88;10510965;27;20488;-79
2024/01/19 02:13:10;;;;;;;87.83;55.60;;;;;;;-4.01;100.00;100977.75;10520434;28;20040;-79
2024/01/19 02:18:10;;;;;;;99.17;60.00;;;;;;;-3.95;100.00;100986.09;10507688;27;20086;-79
2024/01/19 02:23:12;;;;;;;87.83;58.43;;;;;;;-3.90;100.00;100979.81;10518293;27;20121;-79
2024/01/19 02:28:13;;;;;;;96.60;53.28;;;;;;;-3.82;100.00;100990.88;10518210;27;20150;-79
2024/01/19 02:33:13;;;;;;;88.53;57.77;;;;;;;-3.75;100.00;101001.03;10510228;28;21062;-79
2024/01/19 02:38:14;;;;;;;102.43;56.93;;;;;;;-3.65;100.00;100997.78;10524800;27;20044;-79
2024/01/19 02:43:14;;;;;;;91.00;58.17;;;;;;;-3.64;100.00;101003.81;10524727;27;20160;-78
2024/01/19 02:48:15;;;;;;;101.57;59.23;;;;;;;-3.63;100.00;101003.06;10511153;27;20040;-78
2024/01/19 02:53:15;;;;;;;96.80;58.50;;;;;;;-3.63;100.00;101001.41;10522596;27;20118;-78
2024/01/19 02:58:16;;;;;;;94.67;61.40;;;;;;;-3.70;100.00;101002.41;10503047;27;20132;-79
2024/01/19 03:03:16;;;;;;;79.23;55.73;;;;;;;-3.76;100.00;101004.31;10521848;28;20120;-79
2024/01/19 03:08:17;;;;;;;87.17;57.47;;;;;;;-3.70;100.00;100999.88;10508554;27;20120;-79
2024/01/19 03:13:18;;;;;;;84.37;58.13;;;;;;;-3.72;100.00;101010.66;10520419;28;20056;-80
2024/01/19 03:18:18;;;;;;;91.93;57.17;;;;;;;-3.73;100.00;101017.44;10519871;27;20024;-79
2024/01/19 03:23:19;;;;;;;76.03;52.83;;;;;;;-3.74;100.00;101022.38;10517785;27;20539;-80
2024/01/19 03:28:19;;;;;;;90.83;57.67;;;;;;;-3.75;100.00;101033.34;10521497;27;20049;-80
2024/01/19 03:33:20;;;;;;;72.47;51.40;;;;;;;-3.73;100.00;101043.03;10508461;27;20186;-80
2024/01/19 03:38:20;;;;;;;80.63;51.73;;;;;;;-3.83;100.00;101040.22;10515790;27;20044;-80
2024/01/19 03:43:21;;;;;;;85.10;51.87;;;;;;;-3.89;100.00;101049.78;10493685;27;20038;-80
2024/01/19 03:48:21;;;;;;;73.33;46.17;;;;;;;-3.88;100.00;101055.06;10521553;27;20043;-80
2024/01/19 03:53:22;;;;;;;77.17;49.87;;;;;;;-3.80;100.00;101053.34;10517285;27;20349;-79
2024/01/19 03:58:22;;;;;;;52.03;35.73;;;;;;;-3.76;100.00;101059.69;10517821;27;20107;-80
2024/01/19 04:03:23;;;;;;;80.30;47.57;;;;;;;-3.76;100.00;101058.03;10498992;27;20115;-80
2024/01/19 04:08:23;;;;;;;63.83;45.23;;;;;;;-3.77;100.00;101063.91;10519151;27;20803;-80
2024/01/19 04:13:24;;;;;;;81.73;48.37;;;;;;;-3.78;100.00;101069.75;10520908;28;20135;-79
2024/01/19 04:18:24;;;;;;;75.10;46.27;;;;;;;-3.76;100.00;101072.47;10515426;27;20123;-80
2024/01/19 04:23:25;;;;;;;114.80;45.40;;;;;;;-3.79;100.00;101069.56;10506362;27;20131;-79
2024/01/19 04:28:25;;;;;;;49.13;32.57;;;;;;;-3.73;100.00;101076.28;10511506;27;20449;-78
2024/01/19 04:33:26;;;;;;;68.90;29.80;;;;;;;-3.72;100.00;101072.06;10512501;27;20119;-79
2024/01/19 04:38:26;;;;;;;59.73;38.37;;;;;;;-3.64;100.00;101078.00;10517113;27;20127;-78
2024/01/19 04:43:27;;;;;;;87.20;49.73;;;;;;;-3.63;100.00;101088.41;10511864;27;20617;-78
2024/01/19 04:48:28;;;;;;;73.63;42.10;;;;;;;-3.64;100.00;101086.59;10521909;27;20127;-79
2024/01/19 04:53:28;;;;;;;64.15;43.30;;;;;;;-3.64;100.00;101099.38;10487236;27;20518;-79
2024/01/19 04:58:33;;;;;;;79.53;47.72;;;;;;;-3.62;100.00;101105.56;10460445;28;20563;-79
2024/01/19 05:03:33;;;;;;;72.40;47.95;;;;;;;-3.66;100.00;101113.66;10455755;28;20043;-79
2024/01/19 05:08:34;;;;;;;96.47;50.27;;;;;;;-3.65;100.00;101120.59;10481271;28;20068;-79
2024/01/19 05:13:34;;;;;;;64.00;45.47;;;;;;;-3.66;100.00;101123.00;10495230;28;20571;-78
2024/01/19 05:18:35;;;;;;;76.27;44.60;;;;;;;-3.71;100.00;101137.81;10449536;28;20054;-81
2024/01/19 05:23:35;;;;;;;74.13;48.47;;;;;;;-3.62;100.00;101143.94;10468714;28;20033;-81
2024/01/19 05:28:36;;;;;;;62.23;39.43;;;;;;;-3.70;100.00;101149.88;10503863;28;20135;-80
2024/01/19 05:33:38;;;;;;;66.33;46.83;;;;;;;-3.75;100.00;101154.50;10506094;27;20063;-82
2024/01/19 05:38:38;;;;;;;73.43;46.47;;;;;;;-3.73;100.00;101160.69;10516422;28;21128;-81
2024/01/19 05:43:39;;;;;;;68.70;42.77;;;;;;;-3.74;100.00;101165.63;10482900;28;20124;-81
2024/01/19 05:48:39;;;;;;;61.27;41.17;;;;;;;-3.84;100.00;101161.19;10482648;28;20119;-80
2024/01/19 05:53:40;;;;;;;66.37;43.13;;;;;;;-3.83;100.00;101173.22;10480487;28;20044;-80
2024/01/19 05:58:41;;;;;;;75.33;46.50;;;;;;;-3.86;100.00;101172.88;10494260;28;20068;-81
2024/01/19 06:03:41;;;;;;;67.38;46.72;;;;;;;-3.91;100.00;101195.38;10497088;28;20040;-81
2024/01/19 06:08:43;;;;;;;61.17;36.83;;;;;;;-3.90;100.00;101201.44;10518465;28;20040;-81
2024/01/19 06:13:45;;;;;;;66.00;41.15;;;;;;;-3.94;100.00;101214.63;10508108;28;20093;-81
2024/01/19 06:18:45;;;;;;;;;;;;;;;-3.95;100.00;101223.03;10529374;28;20735;-81
2024/01/19 06:23:46;;;;;;;90.13;45.20;;;;;;;-4.00;100.00;101236.22;10524828;28;19928;-81
2024/01/19 06:28:46;;;;;;;73.43;40.33;;;;;;;-4.04;100.00;101243.34;10527861;28;20143;-80
2024/01/19 06:33:47;;;;;;;69.90;43.33;;;;;;;-4.09;100.00;101244.47;10526582;27;20158;-80
2024/01/19 06:38:47;;;;;;;67.90;45.87;;;;;;;-4.15;100.00;101258.41;10508102;27;20035;-80
2024/01/19 06:43:48;;;;;;;72.83;48.37;;;;;;;-4.19;100.00;101266.47;10523537;28;20142;-80
2024/01/19 06:48:48;;;;;;;68.20;42.37;;;;;;;-4.24;100.00;101271.81;10525309;28;20131;-81
2024/01/19 06:53:49;;;;;;;65.00;38.77;;;;;;;-4.38;100.00;101283.00;10525623;28;20543;-81
2024/01/19 06:58:49;;;;;;;64.57;42.57;;;;;;;-4.44;100.00;101284.13;10504528;27;20065;-81
2024/01/19 07:03:55;;;;;;;49.53;35.43;;;;;;;-4.49;100.00;101284.34;10489722;27;20127;-81
2024/01/19 07:08:55;;;;;;;70.55;46.13;;;;;;;-4.46;100.00;101298.38;10478780;28;20048;-80
2024/01/19 07:13:57;;;;;;;64.57;44.70;;;;;;;-4.49;100.00;101294.56;10462015;28;20123;-81
2024/01/19 07:18:57;;;;;;;64.15;39.83;;;;;;;-4.57;100.00;101306.44;10508745;27;20506;-80
2024/01/19 07:23:58;;;;;;;65.17;41.90;;;;;;;-4.71;100.00;101315.09;10507326;27;20044;-80
2024/01/19 07:28:59;;;;;;;71.37;45.73;;;;;;;-4.75;100.00;101316.38;10511504;27;20142;-81
2024/01/19 07:34:00;;;;;;;67.97;42.13;;;;;;;-4.73;100.00;101342.09;10505140;28;20054;-81
2024/01/19 07:39:00;;;;;;;68.93;42.10;;;;;;;-4.76;100.00;101352.84;10505674;28;20136;-80
2024/01/19 07:44:01;;;;;;;65.77;40.10;;;;;;;-4.81;100.00;101360.75;10522780;28;20048;-80
2024/01/19 07:49:01;;;;;;;43.93;36.03;;;;;;;-4.90;100.00;101371.69;10522605;28;20048;-82
2024/01/19 07:54:02;;;;;;;61.90;41.10;;;;;;;-5.06;100.00;101380.84;10504851;28;20520;-81
2024/01/19 07:59:03;;;;;;;59.07;36.37;;;;;;;-5.07;100.00;101384.13;10521563;28;20036;-81
2024/01/19 08:04:04;;;;;;;55.53;36.97;;;;;;;-5.12;100.00;101382.66;10488285;28;20496;-82
2024/01/19 08:09:06;;;;;;;54.95;38.92;;;;;;;-5.16;100.00;101397.63;10521229;27;20032;-82
2024/01/19 08:14:07;;;;;;;50.72;37.15;;;;;;;-5.12;100.00;101405.63;10488279;28;20032;-81
2024/01/19 08:19:07;;;;;;;55.47;37.93;;;;;;;-5.12;100.00;101398.88;10521102;28;20048;-81
2024/01/19 08:24:08;;;;;;;52.33;37.83;;;;;;;-5.11;100.00;101413.47;10521592;28;20122;-80
2024/01/19 08:29:09;;;;;;;45.53;34.97;;;;;;;-5.09;100.00;101419.66;10497875;27;20127;-80
2024/01/19 08:34:12;;;;;;;60.70;36.63;;;;;;;-5.01;100.00;101423.13;10510070;27;20147;-80
2024/01/19 08:39:14;;;;;;;67.05;38.00;;;;;;;-4.84;100.00;101421.66;10503697;27;20030;-80
2024/01/19 08:44:14;;;;;;;;;;;;;;;-4.82;100.00;101436.44;10515415;27;20035;-80
2024/01/19 08:49:14;;;;;;;58.25;33.35;;;;;;;-4.81;100.00;101442.47;10492053;27;20382;-80
2024/01/19 08:54:16;;;;;;;43.73;29.87;;;;;;;-4.70;100.00;101446.25;10512618;27;20562;-79
2024/01/19 08:59:18;;;;;;;45.85;37.15;;;;;;;-4.76;100.00;101447.38;10525054;27;20460;-80
2024/01/19 09:04:18;;;;;;;60.50;38.83;;;;;;;-4.72;100.00;101452.09;10529004;27;20043;-79
2024/01/19 09:09:19;;;;;;;51.83;32.73;;;;;;;-4.65;100.00;101465.59;10527808;27;20047;-78
2024/01/19 09:14:20;;;;;;;56.17;38.60;;;;;;;-4.51;100.00;101480.91;10511958;27;20051;-80
2024/01/19 09:19:20;;;;;;;60.15;41.60;;;;;;;-4.38;100.00;101484.91;10501991;27;20060;-79
2024/01/19 09:24:21;;;;;;;61.83;39.77;;;;;;;-4.22;100.00;101487.63;10496581;27;20479;-79
2024/01/19 09:29:21;;;;;;;62.60;39.80;;;;;;;-4.00;100.00;101491.00;10532740;27;20127;-81
2024/01/19 09:34:22;;;;;;;70.27;44.33;;;;;;;-3.82;100.00;101497.34;10493024;27;20460;-79
2024/01/19 09:39:23;;;;;;;73.53;43.30;;;;;;;-3.71;100.00;101496.94;10512713;27;20107;-80
2024/01/19 09:44:24;;;;;;;60.83;39.58;;;;;;;-3.56;100.00;101504.53;10516922;27;20052;-79
2024/01/19 09:49:38;;;;;;;48.47;41.77;;;;;;;-3.50;100.00;101517.09;10526773;28;20130;-79
2024/01/19 09:54:40;;;;;;;74.60;43.15;;;;;;;-3.42;100.00;101524.94;10476076;28;20062;-79
2024/01/19 09:59:40;;;;;;;63.30;41.88;;;;;;;-3.26;100.00;101540.38;10498248;28;20051;-79
2024/01/19 10:04:41;;;;;;;63.13;42.87;;;;;;;-3.04;100.00;101545.38;10525420;28;20132;-80
2024/01/19 10:09:41;;;;;;;55.90;39.63;;;;;;;-2.77;100.00;101548.31;10522487;28;20166;-79
2024/01/19 10:14:42;;;;;;;64.87;42.23;;;;;;;-2.43;100.00;101562.31;10506621;27;20136;-79
2024/01/19 10:19:42;;;;;;;57.43;34.67;;;;;;;-2.39;100.00;101565.38;10523663;28;20044;-80
2024/01/19 10:24:45;;;;;;;56.07;35.27;;;;;;;-2.24;100.00;101563.59;10523664;28;20122;-80
2024/01/19 10:29:46;;;;;;;54.83;33.35;;;;;;;-1.95;100.00;101567.53;10514529;27;20053;-78
2024/01/19 10:34:52;;;;;;;55.67;36.43;;;;;;;-0.94;100.00;101568.81;10515299;28;20474;-79
2024/01/19 10:39:52;;;;;;;43.33;28.08;;;;;;;0.71;100.00;101547.63;10530230;27;20051;-79
2024/01/19 10:44:53;;;;;;;31.77;21.80;;;;;;;1.96;100.00;101508.63;10502017;27;1172843;-79
2024/01/19 10:50:05;;;;;;;27.30;20.63;;;;;;;2.48;100.00;101478.91;10529024;27;20128;-79
2024/01/19 10:55:05;;;;;;;38.65;18.20;;;;;;;2.63;100.00;101505.22;10514329;28;20032;-79
2024/01/19 11:00:26;;;;;;;29.33;19.40;;;;;;;3.41;100.00;101605.16;10521027;27;20462;-79
2024/01/19 11:05:26;;;;;;;29.17;19.88;;;;;;;3.89;100.00;101692.19;10523917;27;20039;-79
2024/01/19 11:10:29;;;;;;;29.83;17.75;;;;;;;4.43;100.00;101736.50;10490122;27;20060;-79
2024/01/19 11:15:51;;;;;;;31.65;17.10;;;;;;;4.28;100.00;101756.81;10506656;28;20040;-78
2024/01/19 11:20:52;;;;;;;23.95;17.98;;;;;;;3.14;100.00;101766.59;10451337;28;20476;-78
2024/01/19 11:26:17;;;;;;;32.77;16.67;;;;;;;2.36;100.00;101754.25;10459805;28;20435;-78
2024/01/19 11:31:19;;;;;;;33.25;18.00;;;;;;;1.73;100.00;101728.47;10515477;28;20115;-79
2024/01/19 11:36:46;;;;;;;32.70;19.90;;;;;;;1.94;100.00;101719.28;10509823;28;20043;-79
2024/01/19 11:41:48;;;;;;;28.50;17.27;;;;;;;2.97;100.00;101708.13;10495387;27;20790;-79
2024/01/19 11:46:52;;;;;;;33.13;18.15;;;;;;;3.19;100.00;101737.78;10523325;27;20043;-78
2024/01/19 11:51:52;;;;;;;27.92;18.13;;;;;;;2.65;100.00;101738.00;10505581;27;20037;-79
2024/01/19 11:56:59;;;;;;;29.55;16.35;;;;;;;1.48;100.00;101722.59;10510910;27;20051;-79
2024/01/19 12:01:59;;;;;;;34.10;21.50;;;;;;;1.35;100.00;101711.06;10517353;27;20032;-79
2024/01/19 12:07:03;;;;;;;26.83;20.73;;;;;;;2.16;100.00;101711.03;10516368;27;20062;-80
2024/01/19 12:12:04;;;;;;;29.08;22.40;;;;;;;1.85;100.00;101731.31;10518911;27;20036;-80
2024/01/19 12:17:05;;;;;;;25.58;20.88;;;;;;;1.55;100.00;101725.94;10521866;27;21063;-81
2024/01/19 12:22:05;;;;;;;30.40;20.20;;;;;;;2.28;100.00;101727.69;10484595;27;20127;-81
2024/01/19 12:27:06;;;;;;;28.45;24.00;;;;;;;3.11;100.00;101746.50;10483759;27;20131;-79
2024/01/19 12:32:13;;;;;;;31.83;18.48;;;;;;;3.08;100.00;101766.94;10500049;27;20151;-79
2024/01/19 12:37:14;;;;;;;33.28;19.63;;;;;;;2.36;100.00;101759.44;10512584;27;20115;-80
2024/01/19 12:42:14;;;;;;;41.53;23.00;;;;;;;2.03;100.00;101758.91;10501531;27;20564;-80
2024/01/19 12:47:15;;;;;;;34.40;23.15;;;;;;;1.98;100.00;101743.75;10524566;28;20483;-80
2024/01/19 12:52:15;;;;;;;31.63;20.07;;;;;;;2.15;100.00;101732.44;10518472;28;20048;-79
2024/01/19 12:57:17;;;;;;;34.47;22.60;;;;;;;3.35;100.00;101741.75;10534104;28;20040;-82
2024/01/19 13:02:19;;;;;;;;;;;;;;;3.12;100.00;101757.78;10510554;28;20123;-79
2024/01/19 13:07:21;;;;;;;28.37;18.73;;;;;;;3.38;100.00;101774.03;10539740;28;19920;-83
2024/01/19 13:12:22;;;;;;;30.75;20.10;;;;;;;3.82;100.00;101783.97;10533619;28;20040;-79
2024/01/19 13:17:23;;;;;;;24.10;18.85;;;;;;;4.62;100.00;101812.50;10530963;28;20035;-79
2024/01/19 13:22:24;;;;;;;25.40;18.77;;;;;;;4.89;100.00;101818.25;10497968;28;20406;-80
2024/01/19 13:27:24;;;;;;;39.42;19.45;;;;;;;4.10;100.00;101825.28;10516528;27;20131;-80
2024/01/19 13:32:25;;;;;;;21.60;16.40;;;;;;;3.45;100.00;101829.81;10521396;28;20127;-79
2024/01/19 13:37:27;;;;;;;25.58;17.75;;;;;;;2.52;100.00;101822.91;10522722;27;20051;-79
2024/01/19 13:42:27;;;;;;;28.73;18.27;;;;;;;2.00;100.00;101820.59;10524855;28;20045;-81
2024/01/19 13:47:28;;;;;;;26.15;17.33;;;;;;;2.01;100.00;101796.59;10526439;28;20059;-82
2024/01/19 13:52:28;;;;;;;53.13;18.67;;;;;;;1.88;100.00;101814.22;10512042;27;20165;-82
2024/01/19 13:57:29;;;;;;;29.65;20.75;;;;;;;2.42;100.00;101822.03;10489317;27;20051;-87
2024/01/19 14:02:31;;;;;;;31.50;20.50;;;;;;;3.92;100.00;101827.16;10526829;27;20452;-81
2024/01/19 14:07:31;;;;;;;29.67;18.30;;;;;;;4.43;100.00;101864.44;10510284;27;20035;-82
2024/01/19 14:12:32;;;;;;;31.45;19.85;;;;;;;3.79;100.00;101882.09;10502422;27;20040;-83
2024/01/19 14:17:32;;;;;;;24.10;17.63;;;;;;;3.48;100.00;101894.81;10517858;27;20455;-82
2024/01/19 14:22:33;;;;;;;27.42;19.10;;;;;;;3.56;100.00;101897.19;10517471;27;20076;-83
2024/01/19 14:27:36;;;;;;;28.60;16.83;;;;;;;2.43;100.00;101906.53;10494456;27;20036;-83
2024/01/19 14:32:38;;;;;;;34.60;18.20;;;;;;;0.98;100.00;101888.81;10511671;28;20093;-82
2024/01/19 14:37:39;;;;;;;34.63;20.25;;;;;;;0.28;100.00;101860.13;10504551;27;20125;-83
2024/01/19 14:42:39;;;;;;;26.98;16.55;;;;;;;0.18;100.00;101840.22;10507371;27;20452;-83
2024/01/19 14:47:40;;;;;;;36.22;17.17;;;;;;;-0.10;100.00;101832.16;10520015;28;20039;-82
2024/01/19 14:52:44;;;;;;;25.13;17.20;;;;;;;-0.39;100.00;101831.63;10523721;27;20039;-82
2024/01/19 14:57:45;;;;;;;32.08;20.30;;;;;;;-0.70;100.00;101834.38;10505529;27;20044;-82
2024/01/19 15:02:45;;;;;;;36.63;17.90;;;;;;;-1.02;100.00;101831.78;10500042;27;20123;-82
2024/01/19 15:07:46;;;;;;;35.47;17.97;;;;;;;-1.24;100.00;101828.53;10520084;27;20555;-81
2024/01/19 15:12:46;;;;;;;32.37;19.10;;;;;;;-1.41;100.00;101839.47;10524253;27;20162;-82
2024/01/19 15:17:47;;;;;;;35.67;19.43;;;;;;;-1.74;100.00;101840.09;10504565;27;20487;-82
2024/01/19 15:22:47;;;;;;;40.90;23.23;;;;;;;-2.03;100.00;101830.94;10498331;27;20037;-82
2024/01/19 15:27:48;;;;;;;39.90;22.40;;;;;;;-2.30;100.00;101831.25;10524815;27;20543;-84
2024/01/19 15:32:48;;;;;;;37.60;21.80;;;;;;;-2.43;100.00;101827.28;10509368;28;20127;-82
2024/01/19 15:37:49;;;;;;;42.73;24.30;;;;;;;-2.53;100.00;101837.22;10533092;27;20074;-83
2024/01/19 15:42:49;;;;;;;39.97;23.87;;;;;;;-2.68;100.00;101836.38;10521907;27;20119;-81
2024/01/19 15:47:50;;;;;;;38.50;23.67;;;;;;;-2.75;100.00;101827.06;10554411;27;20047;-83
2024/01/19 15:52:51;;;;;;;38.67;21.40;;;;;;;-2.95;100.00;101824.75;10568233;27;20124;-83
2024/01/19 15:57:51;;;;;;;43.25;24.75;;;;;;;-3.21;100.00;101831.91;10561937;28;20134;-85
2024/01/19 16:02:52;;;;;;;35.20;25.67;;;;;;;-3.55;100.00;101839.06;10543535;28;20035;-81
2024/01/19 16:07:52;;;;;;;55.87;25.87;;;;;;;-3.70;100.00;101839.06;10529669;28;20126;-81
2024/01/19 16:12:53;;;;;;;33.43;26.67;;;;;;;-3.80;100.00;101838.69;10528378;28;20042;-81
2024/01/19 16:17:54;;;;;;;48.90;28.03;;;;;;;-3.95;100.00;101834.28;10557120;28;20031;-81
2024/01/19 16:22:55;;;;;;;39.80;28.00;;;;;;;-3.98;100.00;101845.03;10555652;28;20486;-81
2024/01/19 16:27:56;;;;;;;44.65;33.35;;;;;;;-3.75;100.00;101840.16;10518391;28;20063;-81
2024/01/19 16:32:56;;;;;;;51.30;31.93;;;;;;;-3.72;100.00;101842.16;10544661;28;20119;-82
2024/01/19 16:37:57;;;;;;;40.50;31.17;;;;;;;-3.72;100.00;101852.38;10525660;28;20489;-81
2024/01/19 16:43:05;;;;;;;57.97;37.07;;;;;;;-3.70;100.00;101848.38;10526739;28;20093;-82
2024/01/19 16:48:06;;;;;;;51.03;32.47;;;;;;;-3.59;100.00;101850.56;10526987;28;20047;-81
2024/01/19 16:53:06;;;;;;;53.73;32.50;;;;;;;-3.61;100.00;101844.34;10538736;28;20083;-82
2024/01/19 16:58:08;;;;;;;58.97;35.93;;;;;;;-3.63;100.00;101845.81;10540189;28;20126;-80
2024/01/19 17:03:12;;;;;;;48.97;34.03;;;;;;;-3.74;100.00;101841.06;10530596;28;20479;-81
2024/01/19 17:08:12;;;;;;;52.88;34.55;;;;;;;-3.77;100.00;101843.25;10512717;28;20043;-81
2024/01/19 17:13:13;;;;;;;51.97;32.57;;;;;;;-3.75;100.00;101860.63;10521074;28;20394;-81
2024/01/19 17:18:14;;;;;;;68.07;37.30;;;;;;;-3.84;100.00;101865.53;10545523;28;20054;-82
2024/01/19 17:23:15;;;;;;;49.13;34.53;;;;;;;-3.93;100.00;101878.84;10553422;28;20555;-81
2024/01/19 17:28:16;;;;;;;54.95;32.78;;;;;;;-3.91;100.00;101885.06;10528671;28;20085;-82
2024/01/19 17:33:16;;;;;;;50.07;31.97;;;;;;;-3.91;100.00;101891.09;10530258;28;20126;-82
2024/01/19 17:38:17;;;;;;;58.73;35.67;;;;;;;-3.99;100.00;101897.84;10545118;28;20092;-82
2024/01/19 17:43:17;;;;;;;63.47;33.37;;;;;;;-4.08;100.00;101906.00;10556399;28;20123;-82
2024/01/19 17:48:21;;;;;;;53.00;32.20;;;;;;;-4.03;100.00;101913.53;10535140;28;20093;-81
2024/01/19 17:53:22;;;;;;;62.75;35.33;;;;;;;-4.03;100.00;101917.72;10571463;28;20047;-81
2024/01/19 17:58:22;;;;;;;53.13;33.87;;;;;;;-4.05;100.00;101934.53;10549390;28;20122;-84
2024/01/19 18:03:26;;;;;;;45.30;30.27;;;;;;;-4.11;100.00;101944.94;10550645;28;20074;-81
2024/01/19 18:08:29;;;;;;;50.65;33.85;;;;;;;-4.14;100.00;101950.56;10533966;28;20054;-81
2024/01/19 18:13:29;;;;;;;63.78;36.95;;;;;;;-4.04;100.00;101962.84;10552562;28;20125;-82
2024/01/19 18:18:30;;;;;;;59.93;34.17;;;;;;;-4.06;100.00;101956.63;10548787;28;20182;-82
2024/01/19 18:23:31;;;;;;;66.43;35.00;;;;;;;-4.20;100.00;101960.03;10568759;28;20479;-82
2024/01/19 18:28:31;;;;;;;50.93;30.60;;;;;;;-4.11;100.00;101959.34;10548579;28;20044;-82
2024/01/19 18:33:32;;;;;;;68.40;35.40;;;;;;;-4.06;100.00;101954.09;10563989;28;20119;-82
2024/01/19 18:38:32;;;;;;;47.93;37.03;;;;;;;-4.06;100.00;101961.75;10547218;28;20057;-81
2024/01/19 18:43:33;;;;;;;68.87;34.47;;;;;;;-4.24;100.00;101978.28;10517970;28;20040;-81
2024/01/19 18:48:36;;;;;;;53.13;34.07;;;;;;;-4.22;100.00;101974.25;10538077;28;20047;-81
2024/01/19 18:53:37;;;;;;;57.90;33.17;;;;;;;-4.26;100.00;101987.38;10525760;28;20046;-81
2024/01/19 18:58:38;;;;;;;69.63;40.93;;;;;;;-4.29;100.00;101987.94;10532358;28;20123;-81
2024/01/19 19:03:39;;;;;;;56.72;36.78;;;;;;;-4.26;100.00;101994.16;10517882;28;20052;-81
2024/01/19 19:08:39;;;;;;;60.47;36.92;;;;;;;-4.14;100.00;101999.16;10515834;28;20058;-81
2024/01/19 19:13:40;;;;;;;63.23;38.43;;;;;;;-3.99;100.00;102006.88;10523646;28;20058;-81
2024/01/19 19:18:40;;;;;;;80.27;45.57;;;;;;;-3.87;100.00;102021.19;10541197;28;20060;-81
2024/01/19 19:23:41;;;;;;;86.77;41.40;;;;;;;-3.64;100.00;102017.09;10541989;28;20040;-81
2024/01/19 19:28:42;;;;;;;48.77;30.67;;;;;;;-3.59;100.00;102028.81;10548839;28;20139;-81
2024/01/19 19:33:42;;;;;;;76.60;48.58;;;;;;;-3.49;100.00;102030.84;10516552;28;20092;-82
2024/01/19 19:38:44;;;;;;;73.60;45.70;;;;;;;-3.42;100.00;102029.25;10548422;28;20130;-81
2024/01/19 19:43:44;;;;;;;60.38;36.42;;;;;;;-3.34;100.00;102029.25;10528468;28;20044;-81
2024/01/19 19:48:45;;;;;;;93.57;45.30;;;;;;;-3.23;100.00;102026.38;10566032;28;20035;-81
2024/01/19 19:53:46;;;;;;;72.60;50.23;;;;;;;-3.17;100.00;102033.84;10529633;28;20036;-81
2024/01/19 19:58:46;;;;;;;67.90;43.73;;;;;;;-3.08;100.00;102041.75;10519958;28;20491;-82
2024/01/19 20:03:47;;;;;;;79.73;44.93;;;;;;;-3.01;100.00;102039.19;10563700;28;20509;-81
2024/01/19 20:08:50;;;;;;;77.40;42.30;;;;;;;-2.97;100.00;102038.84;10530278;28;20043;-81
2024/01/19 20:13:51;;;;;;;63.05;41.63;;;;;;;-2.92;100.00;102048.00;10563116;28;20067;-81
2024/01/19 20:18:51;;;;;;;71.20;41.43;;;;;;;-2.82;100.00;102044.88;10563902;28;20118;-81
2024/01/19 20:23:52;;;;;;;74.07;40.00;;;;;;;-2.78;100.00;102039.38;10546190;28;20501;-81
2024/01/19 20:28:52;;;;;;;66.43;41.70;;;;;;;-2.75;100.00;102039.75;10545838;28;20102;-81
2024/01/19 20:33:53;;;;;;;60.13;39.10;;;;;;;-2.82;100.00;102035.56;10544125;28;20046;-81
2024/01/19 20:38:53;;;;;;;67.53;40.40;;;;;;;-2.82;100.00;102030.44;10544583;28;20912;-81
2024/01/19 20:43:54;;;;;;;81.90;37.80;;;;;;;-2.76;100.00;102044.72;10562932;28;20035;-82
2024/01/19 20:48:54;;;;;;;53.97;38.17;;;;;;;-2.76;100.00;102034.47;10542497;28;20115;-81
2024/01/19 20:53:55;;;;;;;58.67;34.90;;;;;;;-2.72;100.00;102041.78;10547824;28;20119;-81
2024/01/19 20:58:56;;;;;;;41.47;28.60;;;;;;;-2.81;100.00;102045.09;10543007;28;20039;-82
2024/01/19 21:03:57;;;;;;;58.00;36.40;;;;;;;-2.86;100.00;102035.94;10517440;28;20407;-81
2024/01/19 21:08:58;;;;;;;75.60;36.07;;;;;;;-2.89;100.00;102029.50;10550562;27;20067;-80
2024/01/19 21:13:58;;;;;;;40.73;33.40;;;;;;;-3.13;100.00;102037.00;10565316;27;20040;-81
2024/01/19 21:18:59;;;;;;;55.77;33.50;;;;;;;-3.43;100.00;102041.84;10539192;27;20067;-81
2024/01/19 21:24:00;;;;;;;74.83;35.43;;;;;;;-3.53;100.00;102057.72;10564847;27;20032;-81
2024/01/19 21:29:01;;;;;;;57.30;31.60;;;;;;;-3.61;100.00;102067.00;10564630;27;20039;-80
2024/01/19 21:34:02;;;;;;;;;;;;;;;-3.79;100.00;102067.28;10573982;27;20509;-81
2024/01/19 21:39:03;;;;;;;50.55;28.85;;;;;;;-3.86;100.00;102068.19;10527259;28;19998;-81
2024/01/19 21:44:03;;;;;;;78.17;36.47;;;;;;;-3.94;100.00;102080.00;10567671;28;20399;-81
2024/01/19 21:49:04;;;;;;;52.03;32.33;;;;;;;-3.87;100.00;102079.13;10522215;28;20043;-81
2024/01/19 21:54:04;;;;;;;46.73;32.13;;;;;;;-3.90;100.00;102089.88;10559059;28;20043;-81
2024/01/19 21:59:05;;;;;;;46.20;30.20;;;;;;;-4.02;100.00;102090.91;10552861;28;20028;-82
2024/01/19 22:04:08;;;;;;;46.80;28.07;;;;;;;-4.02;100.00;102101.13;10551361;27;20200;-81
2024/01/19 22:09:08;;;;;;;50.08;30.20;;;;;;;-4.06;100.00;102112.63;10538716;28;20119;-82
2024/01/19 22:14:09;;;;;;;49.50;30.97;;;;;;;-4.17;100.00;102105.25;10544231;28;20040;-81
2024/01/19 22:19:09;;;;;;;36.40;25.47;;;;;;;-4.26;100.00;102107.56;10567836;28;20443;-82
2024/01/19 22:24:11;;;;;;;55.43;27.67;;;;;;;-4.29;100.00;102105.53;10533256;27;20226;-82